sensor_id;sensor_type;location;lat;lon;timestamp;P1;durP1;ratioP1;P2;durP2;ratioP2
62572;SDS011;48626;51.678;5.806;2023-04-25T00:00:52;13.65;;;4.63;;
62572;SDS011;48626;51.678;5.806;2023-04-25T00:03:18;11.90;;;5.07;;
62572;SDS011;48626;51.678;5.806;2023-04-25T00:05:44;14.02;;;4.68;;
62572;SDS011;48626;51.678;5.806;2023-04-25T00:08:10;12.63;;;4.07;;
62572;SDS011;48626;51.678;5.806;2023-04-25T00:10:36;14.05;;;4.35;;
62572;SDS011;48626;51.678;5.806;2023-04-25T00:13:02;13.98;;;4.13;;
62572;SDS011;48626;51.678;5.806;2023-04-25T00:15:27;11.05;;;4.53;;
62572;SDS011;48626;51.678;5.806;2023-04-25T00:17:55;14.32;;;4.50;;
62572;SDS011;48626;51.678;5.806;2023-04-25T00:20:22;11.57;;;4.20;;
62572;SDS011;48626;51.678;5.806;2023-04-25T00:22:48;11.10;;;4.18;;
62572;SDS011;48626;51.678;5.806;2023-04-25T00:25:14;13.68;;;4.50;;
62572;SDS011;48626;51.678;5.806;2023-04-25T00:27:40;11.85;;;4.60;;
62572;SDS011;48626;51.678;5.806;2023-04-25T00:30:07;16.55;;;5.20;;
62572;SDS011;48626;51.678;5.806;2023-04-25T00:32:33;13.50;;;4.40;;
62572;SDS011;48626;51.678;5.806;2023-04-25T00:34:58;18.48;;;4.65;;
62572;SDS011;48626;51.678;5.806;2023-04-25T00:37:24;12.05;;;4.07;;
62572;SDS011;48626;51.678;5.806;2023-04-25T00:39:50;17.20;;;4.18;;
62572;SDS011;48626;51.678;5.806;2023-04-25T00:42:18;18.33;;;4.38;;
62572;SDS011;48626;51.678;5.806;2023-04-25T00:44:44;15.38;;;4.05;;
62572;SDS011;48626;51.678;5.806;2023-04-25T00:47:11;18.38;;;4.80;;
62572;SDS011;48626;51.678;5.806;2023-04-25T00:49:37;16.90;;;4.85;;
62572;SDS011;48626;51.678;5.806;2023-04-25T00:52:02;16.58;;;4.82;;
62572;SDS011;48626;51.678;5.806;2023-04-25T00:54:29;13.05;;;4.88;;
62572;SDS011;48626;51.678;5.806;2023-04-25T00:56:55;14.05;;;4.30;;
62572;SDS011;48626;51.678;5.806;2023-04-25T00:59:21;17.00;;;4.88;;
62572;SDS011;48626;51.678;5.806;2023-04-25T01:01:47;13.05;;;4.45;;
62572;SDS011;48626;51.678;5.806;2023-04-25T01:04:13;16.80;;;4.75;;
62572;SDS011;48626;51.678;5.806;2023-04-25T01:06:39;13.75;;;4.80;;
62572;SDS011;48626;51.678;5.806;2023-04-25T01:09:05;11.65;;;4.63;;
62572;SDS011;48626;51.678;5.806;2023-04-25T01:11:32;11.88;;;4.13;;
62572;SDS011;48626;51.678;5.806;2023-04-25T01:13:57;13.10;;;4.43;;
62572;SDS011;48626;51.678;5.806;2023-04-25T01:16:23;11.68;;;4.60;;
62572;SDS011;48626;51.678;5.806;2023-04-25T01:18:49;12.15;;;4.80;;
62572;SDS011;48626;51.678;5.806;2023-04-25T01:21:16;12.35;;;4.47;;
62572;SDS011;48626;51.678;5.806;2023-04-25T01:23:42;11.70;;;4.15;;
62572;SDS011;48626;51.678;5.806;2023-04-25T01:26:08;21.05;;;4.45;;
62572;SDS011;48626;51.678;5.806;2023-04-25T01:28:36;11.23;;;4.32;;
62572;SDS011;48626;51.678;5.806;2023-04-25T01:31:02;18.35;;;4.15;;
62572;SDS011;48626;51.678;5.806;2023-04-25T01:33:28;15.35;;;4.18;;
62572;SDS011;48626;51.678;5.806;2023-04-25T01:35:54;9.65;;;4.07;;
62572;SDS011;48626;51.678;5.806;2023-04-25T01:38:20;13.73;;;4.55;;
62572;SDS011;48626;51.678;5.806;2023-04-25T01:40:46;18.35;;;4.70;;
62572;SDS011;48626;51.678;5.806;2023-04-25T01:43:13;11.63;;;4.10;;
62572;SDS011;48626;51.678;5.806;2023-04-25T01:45:40;16.08;;;4.45;;
62572;SDS011;48626;51.678;5.806;2023-04-25T01:48:10;11.85;;;4.38;;
62572;SDS011;48626;51.678;5.806;2023-04-25T01:50:38;15.73;;;4.60;;
62572;SDS011;48626;51.678;5.806;2023-04-25T01:53:05;15.00;;;4.70;;
62572;SDS011;48626;51.678;5.806;2023-04-25T01:55:30;18.13;;;4.55;;
62572;SDS011;48626;51.678;5.806;2023-04-25T01:57:56;16.73;;;4.90;;
62572;SDS011;48626;51.678;5.806;2023-04-25T02:00:22;12.93;;;4.93;;
62572;SDS011;48626;51.678;5.806;2023-04-25T02:02:48;16.98;;;4.53;;
62572;SDS011;48626;51.678;5.806;2023-04-25T02:05:15;18.55;;;4.97;;
62572;SDS011;48626;51.678;5.806;2023-04-25T02:07:42;15.85;;;5.03;;
62572;SDS011;48626;51.678;5.806;2023-04-25T02:10:08;12.18;;;4.22;;
62572;SDS011;48626;51.678;5.806;2023-04-25T02:12:35;14.75;;;4.82;;
62572;SDS011;48626;51.678;5.806;2023-04-25T02:15:01;13.85;;;4.95;;
62572;SDS011;48626;51.678;5.806;2023-04-25T02:17:27;19.13;;;5.22;;
62572;SDS011;48626;51.678;5.806;2023-04-25T02:19:52;21.33;;;5.20;;
62572;SDS011;48626;51.678;5.806;2023-04-25T02:22:18;19.90;;;5.05;;
62572;SDS011;48626;51.678;5.806;2023-04-25T02:24:44;15.38;;;4.40;;
62572;SDS011;48626;51.678;5.806;2023-04-25T02:27:10;15.25;;;4.70;;
62572;SDS011;48626;51.678;5.806;2023-04-25T02:29:36;15.88;;;4.43;;
62572;SDS011;48626;51.678;5.806;2023-04-25T02:32:01;16.58;;;4.45;;
62572;SDS011;48626;51.678;5.806;2023-04-25T02:34:27;14.20;;;4.85;;
62572;SDS011;48626;51.678;5.806;2023-04-25T02:36:53;11.63;;;4.82;;
62572;SDS011;48626;51.678;5.806;2023-04-25T02:39:18;18.00;;;4.53;;
62572;SDS011;48626;51.678;5.806;2023-04-25T02:41:44;22.00;;;4.85;;
62572;SDS011;48626;51.678;5.806;2023-04-25T02:44:10;12.65;;;4.88;;
62572;SDS011;48626;51.678;5.806;2023-04-25T02:46:36;13.88;;;4.72;;
62572;SDS011;48626;51.678;5.806;2023-04-25T02:49:01;15.93;;;5.05;;
62572;SDS011;48626;51.678;5.806;2023-04-25T02:51:27;13.95;;;4.57;;
62572;SDS011;48626;51.678;5.806;2023-04-25T02:53:53;14.63;;;4.95;;
62572;SDS011;48626;51.678;5.806;2023-04-25T02:56:18;18.60;;;5.15;;
62572;SDS011;48626;51.678;5.806;2023-04-25T02:58:44;15.68;;;4.68;;
62572;SDS011;48626;51.678;5.806;2023-04-25T03:01:10;19.60;;;4.88;;
62572;SDS011;48626;51.678;5.806;2023-04-25T03:03:36;16.88;;;4.70;;
62572;SDS011;48626;51.678;5.806;2023-04-25T03:06:01;19.23;;;5.38;;
62572;SDS011;48626;51.678;5.806;2023-04-25T03:08:27;16.15;;;5.18;;
62572;SDS011;48626;51.678;5.806;2023-04-25T03:10:57;14.13;;;5.10;;
62572;SDS011;48626;51.678;5.806;2023-04-25T03:13:23;13.45;;;4.93;;
62572;SDS011;48626;51.678;5.806;2023-04-25T03:15:49;16.55;;;4.90;;
62572;SDS011;48626;51.678;5.806;2023-04-25T03:18:15;13.55;;;4.80;;
62572;SDS011;48626;51.678;5.806;2023-04-25T03:20:41;19.65;;;4.85;;
62572;SDS011;48626;51.678;5.806;2023-04-25T03:23:07;11.70;;;4.45;;
62572;SDS011;48626;51.678;5.806;2023-04-25T03:25:33;15.40;;;5.43;;
62572;SDS011;48626;51.678;5.806;2023-04-25T03:27:59;21.33;;;6.50;;
62572;SDS011;48626;51.678;5.806;2023-04-25T03:30:25;19.98;;;5.22;;
62572;SDS011;48626;51.678;5.806;2023-04-25T03:32:51;16.98;;;5.13;;
62572;SDS011;48626;51.678;5.806;2023-04-25T03:35:16;15.45;;;5.35;;
62572;SDS011;48626;51.678;5.806;2023-04-25T03:37:42;19.90;;;5.32;;
62572;SDS011;48626;51.678;5.806;2023-04-25T03:40:11;17.35;;;5.78;;
62572;SDS011;48626;51.678;5.806;2023-04-25T03:42:37;15.02;;;5.22;;
62572;SDS011;48626;51.678;5.806;2023-04-25T03:45:02;17.65;;;5.43;;
62572;SDS011;48626;51.678;5.806;2023-04-25T03:47:29;17.05;;;5.65;;
62572;SDS011;48626;51.678;5.806;2023-04-25T03:49:55;28.02;;;6.43;;
62572;SDS011;48626;51.678;5.806;2023-04-25T03:52:22;20.17;;;5.72;;
62572;SDS011;48626;51.678;5.806;2023-04-25T03:54:48;16.02;;;5.53;;
62572;SDS011;48626;51.678;5.806;2023-04-25T03:57:13;17.48;;;5.60;;
62572;SDS011;48626;51.678;5.806;2023-04-25T03:59:39;16.27;;;5.85;;
62572;SDS011;48626;51.678;5.806;2023-04-25T04:02:05;12.65;;;5.00;;
62572;SDS011;48626;51.678;5.806;2023-04-25T04:04:31;15.30;;;5.32;;
62572;SDS011;48626;51.678;5.806;2023-04-25T04:06:56;18.50;;;5.20;;
62572;SDS011;48626;51.678;5.806;2023-04-25T04:09:22;11.85;;;5.22;;
62572;SDS011;48626;51.678;5.806;2023-04-25T04:11:48;16.10;;;5.40;;
62572;SDS011;48626;51.678;5.806;2023-04-25T04:14:14;15.50;;;5.35;;
62572;SDS011;48626;51.678;5.806;2023-04-25T04:16:39;15.95;;;5.05;;
62572;SDS011;48626;51.678;5.806;2023-04-25T04:19:05;13.73;;;5.78;;
62572;SDS011;48626;51.678;5.806;2023-04-25T04:21:31;20.90;;;5.80;;
62572;SDS011;48626;51.678;5.806;2023-04-25T04:23:57;13.32;;;5.43;;
62572;SDS011;48626;51.678;5.806;2023-04-25T04:26:24;15.20;;;5.13;;
62572;SDS011;48626;51.678;5.806;2023-04-25T04:28:51;16.67;;;6.10;;
62572;SDS011;48626;51.678;5.806;2023-04-25T04:31:19;20.52;;;5.65;;
62572;SDS011;48626;51.678;5.806;2023-04-25T04:33:46;20.08;;;5.82;;
62572;SDS011;48626;51.678;5.806;2023-04-25T04:36:12;13.80;;;5.88;;
62572;SDS011;48626;51.678;5.806;2023-04-25T04:38:38;17.08;;;6.03;;
62572;SDS011;48626;51.678;5.806;2023-04-25T04:41:05;19.77;;;5.78;;
62572;SDS011;48626;51.678;5.806;2023-04-25T04:43:31;19.42;;;5.93;;
62572;SDS011;48626;51.678;5.806;2023-04-25T04:45:58;23.70;;;6.18;;
62572;SDS011;48626;51.678;5.806;2023-04-25T04:48:25;19.70;;;6.15;;
62572;SDS011;48626;51.678;5.806;2023-04-25T04:50:51;16.90;;;5.53;;
62572;SDS011;48626;51.678;5.806;2023-04-25T04:53:17;22.80;;;6.50;;
62572;SDS011;48626;51.678;5.806;2023-04-25T04:55:43;14.00;;;6.30;;
62572;SDS011;48626;51.678;5.806;2023-04-25T04:58:09;21.73;;;6.38;;
62572;SDS011;48626;51.678;5.806;2023-04-25T05:00:34;22.50;;;6.50;;
62572;SDS011;48626;51.678;5.806;2023-04-25T05:03:00;20.92;;;6.82;;
62572;SDS011;48626;51.678;5.806;2023-04-25T05:05:26;22.48;;;6.50;;
62572;SDS011;48626;51.678;5.806;2023-04-25T05:07:51;18.60;;;6.78;;
62572;SDS011;48626;51.678;5.806;2023-04-25T05:10:18;26.42;;;6.90;;
62572;SDS011;48626;51.678;5.806;2023-04-25T05:12:44;21.40;;;6.50;;
62572;SDS011;48626;51.678;5.806;2023-04-25T05:15:10;25.25;;;7.38;;
62572;SDS011;48626;51.678;5.806;2023-04-25T05:17:36;30.75;;;7.03;;
62572;SDS011;48626;51.678;5.806;2023-04-25T05:20:02;21.25;;;6.50;;
62572;SDS011;48626;51.678;5.806;2023-04-25T05:22:30;23.63;;;6.47;;
62572;SDS011;48626;51.678;5.806;2023-04-25T05:24:56;21.05;;;6.07;;
62572;SDS011;48626;51.678;5.806;2023-04-25T05:27:22;21.50;;;6.32;;
62572;SDS011;48626;51.678;5.806;2023-04-25T05:29:47;26.27;;;6.72;;
62572;SDS011;48626;51.678;5.806;2023-04-25T05:32:13;24.73;;;6.35;;
62572;SDS011;48626;51.678;5.806;2023-04-25T05:34:39;23.63;;;6.32;;
62572;SDS011;48626;51.678;5.806;2023-04-25T05:37:06;21.20;;;6.43;;
62572;SDS011;48626;51.678;5.806;2023-04-25T05:39:32;33.47;;;6.32;;
62572;SDS011;48626;51.678;5.806;2023-04-25T05:41:58;23.10;;;7.03;;
62572;SDS011;48626;51.678;5.806;2023-04-25T05:44:23;27.05;;;6.45;;
62572;SDS011;48626;51.678;5.806;2023-04-25T05:46:49;20.50;;;6.32;;
62572;SDS011;48626;51.678;5.806;2023-04-25T05:49:15;18.55;;;6.13;;
62572;SDS011;48626;51.678;5.806;2023-04-25T05:51:40;18.33;;;5.95;;
62572;SDS011;48626;51.678;5.806;2023-04-25T05:54:06;21.77;;;6.43;;
62572;SDS011;48626;51.678;5.806;2023-04-25T05:56:32;30.83;;;6.10;;
62572;SDS011;48626;51.678;5.806;2023-04-25T05:58:58;26.85;;;5.85;;
62572;SDS011;48626;51.678;5.806;2023-04-25T06:01:24;17.33;;;5.80;;
62572;SDS011;48626;51.678;5.806;2023-04-25T06:03:49;23.98;;;6.53;;
62572;SDS011;48626;51.678;5.806;2023-04-25T06:06:17;22.98;;;5.55;;
62572;SDS011;48626;51.678;5.806;2023-04-25T06:08:43;16.88;;;5.45;;
62572;SDS011;48626;51.678;5.806;2023-04-25T06:11:09;19.70;;;6.00;;
62572;SDS011;48626;51.678;5.806;2023-04-25T06:13:35;21.77;;;4.85;;
62572;SDS011;48626;51.678;5.806;2023-04-25T06:16:01;17.17;;;4.93;;
62572;SDS011;48626;51.678;5.806;2023-04-25T06:18:27;18.70;;;4.90;;
62572;SDS011;48626;51.678;5.806;2023-04-25T06:20:53;15.48;;;5.00;;
62572;SDS011;48626;51.678;5.806;2023-04-25T06:23:18;20.63;;;5.25;;
62572;SDS011;48626;51.678;5.806;2023-04-25T06:25:44;17.85;;;5.32;;
62572;SDS011;48626;51.678;5.806;2023-04-25T06:28:10;21.13;;;5.53;;
62572;SDS011;48626;51.678;5.806;2023-04-25T06:30:35;13.57;;;5.05;;
62572;SDS011;48626;51.678;5.806;2023-04-25T06:33:01;18.10;;;5.50;;
62572;SDS011;48626;51.678;5.806;2023-04-25T06:35:27;23.27;;;5.65;;
62572;SDS011;48626;51.678;5.806;2023-04-25T06:37:52;25.70;;;5.78;;
62572;SDS011;48626;51.678;5.806;2023-04-25T06:40:18;14.40;;;4.82;;
62572;SDS011;48626;51.678;5.806;2023-04-25T06:42:44;15.38;;;4.68;;
62572;SDS011;48626;51.678;5.806;2023-04-25T06:45:09;22.45;;;4.78;;
62572;SDS011;48626;51.678;5.806;2023-04-25T06:47:35;14.73;;;4.35;;
62572;SDS011;48626;51.678;5.806;2023-04-25T06:50:01;23.90;;;5.65;;
62572;SDS011;48626;51.678;5.806;2023-04-25T06:52:27;16.30;;;4.82;;
62572;SDS011;48626;51.678;5.806;2023-04-25T06:54:53;17.13;;;4.47;;
62572;SDS011;48626;51.678;5.806;2023-04-25T06:57:18;15.23;;;4.55;;
62572;SDS011;48626;51.678;5.806;2023-04-25T06:59:44;16.80;;;4.20;;
62572;SDS011;48626;51.678;5.806;2023-04-25T07:02:10;11.35;;;4.15;;
62572;SDS011;48626;51.678;5.806;2023-04-25T07:04:35;14.38;;;3.88;;
62572;SDS011;48626;51.678;5.806;2023-04-25T07:07:01;21.25;;;4.53;;
62572;SDS011;48626;51.678;5.806;2023-04-25T07:09:28;18.48;;;4.47;;
62572;SDS011;48626;51.678;5.806;2023-04-25T07:11:54;19.25;;;4.70;;
62572;SDS011;48626;51.678;5.806;2023-04-25T07:14:21;22.10;;;4.40;;
62572;SDS011;48626;51.678;5.806;2023-04-25T07:16:47;20.52;;;4.20;;
62572;SDS011;48626;51.678;5.806;2023-04-25T07:19:12;18.92;;;3.90;;
62572;SDS011;48626;51.678;5.806;2023-04-25T07:21:38;18.10;;;4.43;;
62572;SDS011;48626;51.678;5.806;2023-04-25T07:24:04;15.63;;;3.90;;
62572;SDS011;48626;51.678;5.806;2023-04-25T07:26:30;16.25;;;3.45;;
62572;SDS011;48626;51.678;5.806;2023-04-25T07:28:56;13.00;;;3.75;;
62572;SDS011;48626;51.678;5.806;2023-04-25T07:31:21;12.55;;;3.42;;
62572;SDS011;48626;51.678;5.806;2023-04-25T07:33:48;16.77;;;3.45;;
62572;SDS011;48626;51.678;5.806;2023-04-25T07:36:13;13.93;;;3.40;;
62572;SDS011;48626;51.678;5.806;2023-04-25T07:38:40;19.98;;;4.30;;
62572;SDS011;48626;51.678;5.806;2023-04-25T07:41:06;10.38;;;3.13;;
62572;SDS011;48626;51.678;5.806;2023-04-25T07:43:32;14.88;;;3.15;;
62572;SDS011;48626;51.678;5.806;2023-04-25T07:45:57;18.92;;;4.03;;
62572;SDS011;48626;51.678;5.806;2023-04-25T07:48:23;15.07;;;4.03;;
62572;SDS011;48626;51.678;5.806;2023-04-25T07:50:49;18.58;;;3.75;;
62572;SDS011;48626;51.678;5.806;2023-04-25T07:53:15;18.13;;;3.33;;
62572;SDS011;48626;51.678;5.806;2023-04-25T07:55:43;14.18;;;2.97;;
62572;SDS011;48626;51.678;5.806;2023-04-25T07:58:09;16.52;;;3.28;;
62572;SDS011;48626;51.678;5.806;2023-04-25T08:00:36;14.18;;;3.35;;
62572;SDS011;48626;51.678;5.806;2023-04-25T08:03:02;16.50;;;3.17;;
62572;SDS011;48626;51.678;5.806;2023-04-25T08:05:28;15.80;;;3.28;;
62572;SDS011;48626;51.678;5.806;2023-04-25T08:07:54;12.27;;;3.03;;
62572;SDS011;48626;51.678;5.806;2023-04-25T08:10:21;11.23;;;2.88;;
62572;SDS011;48626;51.678;5.806;2023-04-25T08:12:48;10.63;;;2.70;;
62572;SDS011;48626;51.678;5.806;2023-04-25T08:15:14;12.73;;;3.00;;
62572;SDS011;48626;51.678;5.806;2023-04-25T08:17:40;9.80;;;2.88;;
62572;SDS011;48626;51.678;5.806;2023-04-25T08:20:06;9.30;;;2.60;;
62572;SDS011;48626;51.678;5.806;2023-04-25T08:22:32;14.50;;;2.63;;
62572;SDS011;48626;51.678;5.806;2023-04-25T08:24:58;15.38;;;3.10;;
62572;SDS011;48626;51.678;5.806;2023-04-25T08:27:25;13.65;;;2.80;;
62572;SDS011;48626;51.678;5.806;2023-04-25T08:29:51;9.95;;;2.60;;
62572;SDS011;48626;51.678;5.806;2023-04-25T08:32:16;10.85;;;2.65;;
62572;SDS011;48626;51.678;5.806;2023-04-25T08:34:43;10.48;;;2.67;;
62572;SDS011;48626;51.678;5.806;2023-04-25T08:37:09;10.70;;;2.83;;
62572;SDS011;48626;51.678;5.806;2023-04-25T08:39:35;15.45;;;3.17;;
62572;SDS011;48626;51.678;5.806;2023-04-25T08:42:02;8.98;;;2.38;;
62572;SDS011;48626;51.678;5.806;2023-04-25T08:44:34;9.85;;;2.53;;
62572;SDS011;48626;51.678;5.806;2023-04-25T08:47:02;11.15;;;2.60;;
62572;SDS011;48626;51.678;5.806;2023-04-25T08:49:30;8.02;;;2.58;;
62572;SDS011;48626;51.678;5.806;2023-04-25T08:51:58;7.75;;;2.20;;
62572;SDS011;48626;51.678;5.806;2023-04-25T08:54:25;12.52;;;2.60;;
62572;SDS011;48626;51.678;5.806;2023-04-25T08:56:54;11.52;;;2.53;;
62572;SDS011;48626;51.678;5.806;2023-04-25T08:59:22;11.77;;;2.75;;
62572;SDS011;48626;51.678;5.806;2023-04-25T09:01:51;10.43;;;2.47;;
62572;SDS011;48626;51.678;5.806;2023-04-25T09:04:17;10.73;;;2.67;;
62572;SDS011;48626;51.678;5.806;2023-04-25T09:06:45;11.82;;;2.78;;
62572;SDS011;48626;51.678;5.806;2023-04-25T09:09:11;13.65;;;3.13;;
62572;SDS011;48626;51.678;5.806;2023-04-25T09:11:37;11.82;;;2.92;;
62572;SDS011;48626;51.678;5.806;2023-04-25T09:14:13;12.30;;;2.63;;
62572;SDS011;48626;51.678;5.806;2023-04-25T09:19:21;8.07;;;2.58;;
62572;SDS011;48626;51.678;5.806;2023-04-25T09:21:54;12.07;;;2.92;;
62572;SDS011;48626;51.678;5.806;2023-04-25T09:27:18;7.63;;;2.15;;
62572;SDS011;48626;51.678;5.806;2023-04-25T09:29:48;12.47;;;2.20;;
62572;SDS011;48626;51.678;5.806;2023-04-25T09:32:21;9.82;;;2.22;;
62572;SDS011;48626;51.678;5.806;2023-04-25T09:37:22;10.15;;;2.45;;
62572;SDS011;48626;51.678;5.806;2023-04-25T09:39:49;9.02;;;2.45;;
62572;SDS011;48626;51.678;5.806;2023-04-25T09:42:16;12.07;;;2.70;;
62572;SDS011;48626;51.678;5.806;2023-04-25T09:44:46;10.43;;;2.58;;
62572;SDS011;48626;51.678;5.806;2023-04-25T09:47:13;8.65;;;2.75;;
62572;SDS011;48626;51.678;5.806;2023-04-25T09:49:41;9.90;;;2.53;;
62572;SDS011;48626;51.678;5.806;2023-04-25T09:52:08;11.73;;;2.95;;
62572;SDS011;48626;51.678;5.806;2023-04-25T09:54:35;9.32;;;2.58;;
62572;SDS011;48626;51.678;5.806;2023-04-25T09:57:07;12.25;;;2.78;;
62572;SDS011;48626;51.678;5.806;2023-04-25T09:59:43;11.30;;;3.13;;
62572;SDS011;48626;51.678;5.806;2023-04-25T10:02:20;8.07;;;2.30;;
62572;SDS011;48626;51.678;5.806;2023-04-25T10:04:48;12.43;;;2.53;;
62572;SDS011;48626;51.678;5.806;2023-04-25T10:07:18;9.50;;;2.97;;
62572;SDS011;48626;51.678;5.806;2023-04-25T10:09:47;11.88;;;3.15;;
62572;SDS011;48626;51.678;5.806;2023-04-25T10:12:21;12.45;;;2.65;;
62572;SDS011;48626;51.678;5.806;2023-04-25T10:14:48;10.75;;;2.72;;
62572;SDS011;48626;51.678;5.806;2023-04-25T10:17:14;10.88;;;2.75;;
62572;SDS011;48626;51.678;5.806;2023-04-25T10:19:40;7.80;;;2.65;;
62572;SDS011;48626;51.678;5.806;2023-04-25T10:24:58;9.20;;;2.80;;
62572;SDS011;48626;51.678;5.806;2023-04-25T10:27:27;11.90;;;3.00;;
62572;SDS011;48626;51.678;5.806;2023-04-25T10:32:49;11.52;;;2.85;;
62572;SDS011;48626;51.678;5.806;2023-04-25T10:35:17;10.55;;;2.35;;
62572;SDS011;48626;51.678;5.806;2023-04-25T10:40:23;8.30;;;2.70;;
62572;SDS011;48626;51.678;5.806;2023-04-25T10:42:49;6.38;;;2.45;;
62572;SDS011;48626;51.678;5.806;2023-04-25T10:45:20;9.88;;;2.10;;
62572;SDS011;48626;51.678;5.806;2023-04-25T10:47:47;4.93;;;2.15;;
62572;SDS011;48626;51.678;5.806;2023-04-25T10:50:14;6.18;;;2.13;;
62572;SDS011;48626;51.678;5.806;2023-04-25T10:52:43;7.93;;;2.38;;
62572;SDS011;48626;51.678;5.806;2023-04-25T10:55:09;4.53;;;2.10;;
62572;SDS011;48626;51.678;5.806;2023-04-25T10:57:40;6.60;;;2.00;;
62572;SDS011;48626;51.678;5.806;2023-04-25T11:02:41;9.05;;;2.55;;
62572;SDS011;48626;51.678;5.806;2023-04-25T11:05:08;8.43;;;2.05;;
62572;SDS011;48626;51.678;5.806;2023-04-25T11:10:15;6.60;;;2.30;;
62572;SDS011;48626;51.678;5.806;2023-04-25T11:12:41;8.32;;;2.22;;
62572;SDS011;48626;51.678;5.806;2023-04-25T11:15:07;6.55;;;2.03;;
62572;SDS011;48626;51.678;5.806;2023-04-25T11:17:34;6.25;;;2.30;;
62572;SDS011;48626;51.678;5.806;2023-04-25T11:20:00;7.25;;;2.08;;
62572;SDS011;48626;51.678;5.806;2023-04-25T11:22:27;6.07;;;2.45;;
62572;SDS011;48626;51.678;5.806;2023-04-25T11:24:53;4.43;;;1.77;;
62572;SDS011;48626;51.678;5.806;2023-04-25T11:27:19;7.57;;;2.00;;
62572;SDS011;48626;51.678;5.806;2023-04-25T11:29:46;6.55;;;2.05;;
62572;SDS011;48626;51.678;5.806;2023-04-25T11:32:14;7.82;;;2.08;;
62572;SDS011;48626;51.678;5.806;2023-04-25T11:34:42;7.07;;;2.13;;
62572;SDS011;48626;51.678;5.806;2023-04-25T11:37:09;7.80;;;2.30;;
62572;SDS011;48626;51.678;5.806;2023-04-25T11:39:37;11.15;;;2.30;;
62572;SDS011;48626;51.678;5.806;2023-04-25T11:42:04;6.30;;;2.38;;
62572;SDS011;48626;51.678;5.806;2023-04-25T11:44:31;7.65;;;2.60;;
62572;SDS011;48626;51.678;5.806;2023-04-25T11:46:56;14.80;;;3.15;;
62572;SDS011;48626;51.678;5.806;2023-04-25T11:49:22;9.25;;;2.30;;
62572;SDS011;48626;51.678;5.806;2023-04-25T11:51:49;5.75;;;2.10;;
62572;SDS011;48626;51.678;5.806;2023-04-25T11:54:16;9.88;;;2.78;;
62572;SDS011;48626;51.678;5.806;2023-04-25T11:56:42;7.97;;;2.63;;
62572;SDS011;48626;51.678;5.806;2023-04-25T11:59:11;5.35;;;2.50;;
62572;SDS011;48626;51.678;5.806;2023-04-25T12:01:39;9.68;;;2.72;;
62572;SDS011;48626;51.678;5.806;2023-04-25T12:04:12;7.72;;;2.55;;
62572;SDS011;48626;51.678;5.806;2023-04-25T12:06:41;7.55;;;2.28;;
62572;SDS011;48626;51.678;5.806;2023-04-25T12:09:09;8.75;;;2.60;;
62572;SDS011;48626;51.678;5.806;2023-04-25T12:11:42;6.93;;;2.50;;
62572;SDS011;48626;51.678;5.806;2023-04-25T12:14:20;7.80;;;2.13;;
62572;SDS011;48626;51.678;5.806;2023-04-25T12:16:52;8.73;;;2.40;;
62572;SDS011;48626;51.678;5.806;2023-04-25T12:22:20;8.23;;;2.72;;
62572;SDS011;48626;51.678;5.806;2023-04-25T12:24:47;5.85;;;2.35;;
62572;SDS011;48626;51.678;5.806;2023-04-25T12:27:15;6.25;;;2.40;;
62572;SDS011;48626;51.678;5.806;2023-04-25T12:29:53;6.03;;;1.92;;
62572;SDS011;48626;51.678;5.806;2023-04-25T12:32:20;4.63;;;1.88;;
62572;SDS011;48626;51.678;5.806;2023-04-25T12:34:46;5.25;;;2.30;;
62572;SDS011;48626;51.678;5.806;2023-04-25T12:37:12;4.70;;;2.03;;
62572;SDS011;48626;51.678;5.806;2023-04-25T12:39:38;6.53;;;2.08;;
62572;SDS011;48626;51.678;5.806;2023-04-25T12:42:04;6.20;;;2.33;;
62572;SDS011;48626;51.678;5.806;2023-04-25T12:44:30;6.28;;;2.00;;
62572;SDS011;48626;51.678;5.806;2023-04-25T12:46:55;6.30;;;2.35;;
62572;SDS011;48626;51.678;5.806;2023-04-25T12:49:21;8.05;;;2.38;;
62572;SDS011;48626;51.678;5.806;2023-04-25T12:51:48;4.00;;;2.08;;
62572;SDS011;48626;51.678;5.806;2023-04-25T12:54:14;7.18;;;2.55;;
62572;SDS011;48626;51.678;5.806;2023-04-25T12:56:40;6.65;;;2.53;;
62572;SDS011;48626;51.678;5.806;2023-04-25T12:59:06;9.63;;;2.88;;
62572;SDS011;48626;51.678;5.806;2023-04-25T13:01:32;9.10;;;2.50;;
62572;SDS011;48626;51.678;5.806;2023-04-25T13:03:58;7.28;;;2.58;;
62572;SDS011;48626;51.678;5.806;2023-04-25T13:06:24;9.75;;;2.90;;
62572;SDS011;48626;51.678;5.806;2023-04-25T13:08:51;5.32;;;2.20;;
62572;SDS011;48626;51.678;5.806;2023-04-25T13:11:16;9.73;;;2.63;;
62572;SDS011;48626;51.678;5.806;2023-04-25T13:13:43;10.30;;;2.33;;
62572;SDS011;48626;51.678;5.806;2023-04-25T13:16:09;12.13;;;2.60;;
62572;SDS011;48626;51.678;5.806;2023-04-25T13:18:36;39.03;;;4.65;;
62572;SDS011;48626;51.678;5.806;2023-04-25T13:21:02;12.20;;;3.00;;
62572;SDS011;48626;51.678;5.806;2023-04-25T13:23:28;18.73;;;3.88;;
62572;SDS011;48626;51.678;5.806;2023-04-25T13:25:55;11.73;;;3.70;;
62572;SDS011;48626;51.678;5.806;2023-04-25T13:28:23;9.18;;;3.17;;
62572;SDS011;48626;51.678;5.806;2023-04-25T13:30:52;9.90;;;2.77;;
62572;SDS011;48626;51.678;5.806;2023-04-25T13:33:18;10.43;;;2.63;;
62572;SDS011;48626;51.678;5.806;2023-04-25T13:35:45;8.38;;;2.45;;
62572;SDS011;48626;51.678;5.806;2023-04-25T13:38:18;7.63;;;2.65;;
62572;SDS011;48626;51.678;5.806;2023-04-25T13:40:48;11.45;;;2.67;;
62572;SDS011;48626;51.678;5.806;2023-04-25T13:43:14;5.43;;;2.55;;
62572;SDS011;48626;51.678;5.806;2023-04-25T13:45:40;8.68;;;3.58;;
62572;SDS011;48626;51.678;5.806;2023-04-25T13:48:06;22.20;;;4.50;;
62572;SDS011;48626;51.678;5.806;2023-04-25T13:50:32;15.95;;;4.10;;
62572;SDS011;48626;51.678;5.806;2023-04-25T13:52:58;10.98;;;3.13;;
62572;SDS011;48626;51.678;5.806;2023-04-25T13:55:23;11.70;;;2.92;;
62572;SDS011;48626;51.678;5.806;2023-04-25T13:57:49;8.82;;;2.67;;
62572;SDS011;48626;51.678;5.806;2023-04-25T14:00:16;10.43;;;2.65;;
62572;SDS011;48626;51.678;5.806;2023-04-25T14:02:41;11.00;;;2.78;;
62572;SDS011;48626;51.678;5.806;2023-04-25T14:05:07;10.13;;;2.70;;
62572;SDS011;48626;51.678;5.806;2023-04-25T14:07:34;6.07;;;2.22;;
62572;SDS011;48626;51.678;5.806;2023-04-25T14:10:03;7.72;;;2.40;;
62572;SDS011;48626;51.678;5.806;2023-04-25T14:12:30;10.25;;;2.65;;
62572;SDS011;48626;51.678;5.806;2023-04-25T14:14:57;7.43;;;2.30;;
62572;SDS011;48626;51.678;5.806;2023-04-25T14:17:22;7.72;;;2.22;;
62572;SDS011;48626;51.678;5.806;2023-04-25T14:19:49;6.22;;;2.30;;
62572;SDS011;48626;51.678;5.806;2023-04-25T14:22:16;4.05;;;2.08;;
62572;SDS011;48626;51.678;5.806;2023-04-25T14:24:42;12.00;;;2.40;;
62572;SDS011;48626;51.678;5.806;2023-04-25T14:27:08;7.43;;;2.30;;
62572;SDS011;48626;51.678;5.806;2023-04-25T14:29:34;8.30;;;2.30;;
62572;SDS011;48626;51.678;5.806;2023-04-25T14:32:00;8.20;;;2.00;;
62572;SDS011;48626;51.678;5.806;2023-04-25T14:34:27;7.72;;;2.40;;
62572;SDS011;48626;51.678;5.806;2023-04-25T14:36:52;5.88;;;2.10;;
62572;SDS011;48626;51.678;5.806;2023-04-25T14:39:19;4.85;;;2.00;;
62572;SDS011;48626;51.678;5.806;2023-04-25T14:41:45;5.63;;;2.10;;
62572;SDS011;48626;51.678;5.806;2023-04-25T14:44:11;4.38;;;1.85;;
62572;SDS011;48626;51.678;5.806;2023-04-25T14:46:36;5.10;;;2.00;;
62572;SDS011;48626;51.678;5.806;2023-04-25T14:49:03;5.78;;;2.30;;
62572;SDS011;48626;51.678;5.806;2023-04-25T14:51:29;6.22;;;2.58;;
62572;SDS011;48626;51.678;5.806;2023-04-25T14:53:55;5.25;;;2.30;;
62572;SDS011;48626;51.678;5.806;2023-04-25T14:56:21;6.40;;;2.05;;
62572;SDS011;48626;51.678;5.806;2023-04-25T14:58:47;5.45;;;2.28;;